Time;durP1;ratioP1;P1;durP2;ratioP2;P2;SDS_P1;SDS_P2;PMS_P1;PMS_P2;Temp;Humidity;BMP_temperature;BMP_pressure;BME280_temperature;BME280_humidity;BME280_pressure;Samples;Min_cycle;Max_cycle;Signal;HPM_P1;HPM_P2
2023/09/11 00:01:31;;;;;;;28.92;10.13;;;;;;;;;;4986178;28;20504;-76
2023/09/11 00:03:58;;;;;;;26.23;10.02;;;;;;;;;;4986281;28;20583;-75
2023/09/11 00:06:25;;;;;;;28.83;10.35;;;;;;;;;;4987067;28;20032;-76
2023/09/11 00:08:51;;;;;;;18.80;8.68;;;;;;;;;;4989797;28;20379;-75
2023/09/11 00:11:17;;;;;;;26.35;9.70;;;;;;;;;;4983360;28;20034;-75
2023/09/11 00:13:43;;;;;;;29.88;10.25;;;;;;;;;;4979623;28;20039;-75
2023/09/11 00:16:09;;;;;;;30.70;9.40;;;;;;;;;;4983513;28;20065;-76
2023/09/11 00:18:35;;;;;;;18.50;9.73;;;;;;;;;;4988617;28;20058;-75
2023/09/11 00:21:01;;;;;;;27.88;9.48;;;;;;;;;;4983852;28;20570;-75
2023/09/11 00:23:27;;;;;;;26.05;9.50;;;;;;;;;;4982559;28;20054;-76
2023/09/11 00:25:53;;;;;;;19.42;8.50;;;;;;;;;;4994838;28;20553;-75
2023/09/11 00:28:19;;;;;;;28.85;9.82;;;;;;;;;;4987908;28;20130;-75
2023/09/11 00:30:45;;;;;;;27.65;11.45;;;;;;;;;;4988207;28;20113;-75
2023/09/11 00:33:11;;;;;;;25.15;10.48;;;;;;;;;;4994171;28;20424;-75
2023/09/11 00:35:37;;;;;;;22.63;10.15;;;;;;;;;;4988976;28;20026;-75
2023/09/11 00:38:03;;;;;;;29.90;11.02;;;;;;;;;;4984579;28;20035;-76
2023/09/11 00:40:29;;;;;;;25.67;9.20;;;;;;;;;;4990604;28;20381;-75
2023/09/11 00:42:55;;;;;;;26.30;10.02;;;;;;;;;;4986883;28;20104;-75
2023/09/11 00:45:21;;;;;;;27.98;9.88;;;;;;;;;;4994776;28;20571;-75
2023/09/11 00:47:48;;;;;;;22.00;9.38;;;;;;;;;;4988169;28;20038;-75
2023/09/11 00:50:14;;;;;;;33.45;10.57;;;;;;;;;;4984739;28;20029;-75
2023/09/11 00:52:41;;;;;;;29.67;10.57;;;;;;;;;;4981203;28;20086;-75
2023/09/11 00:55:08;;;;;;;30.92;9.68;;;;;;;;;;4987663;28;20384;-75
2023/09/11 00:57:34;;;;;;;27.48;9.82;;;;;;;;;;4987209;28;20551;-75
2023/09/11 01:00:00;;;;;;;24.48;10.80;;;;;;;;;;5001384;28;20057;-76
2023/09/11 01:02:26;;;;;;;23.83;10.63;;;;;;;;;;4982253;28;20492;-75
2023/09/11 01:04:52;;;;;;;36.67;10.93;;;;;;;;;;4986630;28;20034;-75
2023/09/11 01:07:18;;;;;;;25.98;9.50;;;;;;;;;;4984719;28;20357;-75
2023/09/11 01:09:44;;;;;;;23.27;11.85;;;;;;;;;;4984599;28;20018;-75
2023/09/11 01:12:10;;;;;;;25.38;10.32;;;;;;;;;;4981648;28;20384;-76
2023/09/11 01:14:40;;;;;;;21.70;9.82;;;;;;;;;;4981504;28;20381;-75
2023/09/11 01:17:33;;;;;;;29.70;10.85;;;;;;;;;;4999267;28;20057;-75
2023/09/11 01:20:10;;;;;;;25.17;10.65;;;;;;;;;;4986863;28;20023;-75
2023/09/11 01:22:42;;;;;;;27.60;11.25;;;;;;;;;;4978544;28;20038;-83
2023/09/11 01:25:16;;;;;;;32.17;9.88;;;;;;;;;;4987186;28;20045;-81
2023/09/11 01:28:00;;;;;;;28.98;10.45;;;;;;;;;;4987463;28;20046;-80
2023/09/11 01:30:26;;;;;;;31.45;10.23;;;;;;;;;;4978903;28;20046;-81
2023/09/11 01:32:53;;;;;;;23.58;10.38;;;;;;;;;;4984296;28;20493;-80
2023/09/11 01:35:20;;;;;;;29.45;10.55;;;;;;;;;;4983854;28;20085;-76
2023/09/11 01:37:46;;;;;;;27.40;10.00;;;;;;;;;;4985512;28;20037;-78
2023/09/11 01:40:12;;;;;;;24.63;10.25;;;;;;;;;;4981854;28;20053;-77
2023/09/11 01:42:44;;;;;;;22.05;9.68;;;;;;;;;;4988346;28;20390;-78
2023/09/11 01:45:14;;;;;;;26.42;9.80;;;;;;;;;;4988860;28;20085;-81
2023/09/11 01:47:41;;;;;;;20.90;9.98;;;;;;;;;;4983018;28;20428;-80
2023/09/11 01:50:08;;;;;;;32.45;11.88;;;;;;;;;;4982464;28;20041;-82
2023/09/11 01:52:36;;;;;;;27.17;10.27;;;;;;;;;;4986753;28;20686;-79
2023/09/11 01:55:02;;;;;;;25.90;9.73;;;;;;;;;;4980300;28;20109;-78
2023/09/11 01:57:28;;;;;;;17.75;9.60;;;;;;;;;;4983190;28;20108;-77
2023/09/11 01:59:54;;;;;;;23.60;10.70;;;;;;;;;;4980772;28;20026;-81
2023/09/11 02:02:20;;;;;;;29.50;11.43;;;;;;;;;;4979648;28;20113;-79
2023/09/11 02:04:46;;;;;;;48.42;20.88;;;;;;;;;;4980870;28;20452;-78
2023/09/11 02:07:12;;;;;;;31.60;13.15;;;;;;;;;;4988125;28;20042;-82
2023/09/11 02:09:38;;;;;;;25.02;12.20;;;;;;;;;;4987620;28;20039;-81
2023/09/11 02:12:05;;;;;;;33.88;12.75;;;;;;;;;;4984087;28;20026;-74
2023/09/11 02:14:31;;;;;;;26.65;10.23;;;;;;;;;;4983751;28;20046;-73
2023/09/11 02:17:02;;;;;;;23.85;10.80;;;;;;;;;;4984813;28;20030;-73
2023/09/11 02:19:28;;;;;;;24.13;11.75;;;;;;;;;;4979020;28;20037;-74
2023/09/11 02:21:54;;;;;;;29.75;11.25;;;;;;;;;;4979934;28;20048;-74
2023/09/11 02:24:20;;;;;;;18.63;10.50;;;;;;;;;;4987143;28;20042;-74
2023/09/11 02:26:46;;;;;;;29.90;11.70;;;;;;;;;;4981368;28;20931;-74
2023/09/11 02:29:12;;;;;;;38.85;11.27;;;;;;;;;;4989309;28;20124;-73
2023/09/11 02:31:38;;;;;;;29.23;11.77;;;;;;;;;;4984841;28;20042;-73
2023/09/11 02:34:04;;;;;;;23.27;11.35;;;;;;;;;;4977556;28;20152;-74
2023/09/11 02:36:30;;;;;;;20.58;10.57;;;;;;;;;;4981665;28;20038;-73
2023/09/11 02:38:56;;;;;;;24.80;11.52;;;;;;;;;;4985559;28;20035;-73
2023/09/11 02:41:22;;;;;;;20.10;10.93;;;;;;;;;;4983726;28;21712;-74
2023/09/11 02:43:48;;;;;;;23.77;11.80;;;;;;;;;;4987175;28;20042;-74
2023/09/11 02:46:14;;;;;;;28.98;11.60;;;;;;;;;;4980286;28;20042;-74
2023/09/11 02:48:45;;;;;;;24.45;11.00;;;;;;;;;;4979112;28;20035;-74
2023/09/11 02:51:11;;;;;;;27.55;11.80;;;;;;;;;;4981066;28;20416;-73
2023/09/11 02:53:37;;;;;;;28.25;11.60;;;;;;;;;;4982895;28;20034;-74
2023/09/11 02:56:03;;;;;;;20.02;11.70;;;;;;;;;;4984662;28;20039;-74
2023/09/11 02:58:29;;;;;;;30.80;11.90;;;;;;;;;;4985015;28;20073;-74
2023/09/11 03:01:00;;;;;;;26.65;11.75;;;;;;;;;;4980113;28;20496;-74
2023/09/11 03:03:26;;;;;;;26.75;12.07;;;;;;;;;;4983962;28;20493;-74
2023/09/11 03:05:59;;;;;;;28.27;12.52;;;;;;;;;;4974221;28;20031;-73
2023/09/11 03:08:25;;;;;;;32.92;12.52;;;;;;;;;;4983744;28;20473;-73
2023/09/11 03:10:51;;;;;;;38.55;12.50;;;;;;;;;;4978232;28;20042;-74
2023/09/11 03:13:17;;;;;;;31.80;12.15;;;;;;;;;;4981905;28;20128;-74
2023/09/11 03:15:43;;;;;;;29.95;12.60;;;;;;;;;;4981296;28;20031;-74
2023/09/11 03:18:09;;;;;;;24.63;11.98;;;;;;;;;;4980177;28;20378;-74
2023/09/11 03:20:35;;;;;;;34.17;12.60;;;;;;;;;;4985685;28;20031;-74
2023/09/11 03:23:01;;;;;;;26.63;12.13;;;;;;;;;;4984535;28;20030;-73
2023/09/11 03:25:28;;;;;;;23.27;11.45;;;;;;;;;;4981592;28;20133;-74
2023/09/11 03:27:54;;;;;;;31.13;13.10;;;;;;;;;;4986511;28;20026;-74
2023/09/11 03:30:21;;;;;;;24.65;12.30;;;;;;;;;;4982360;28;20031;-75
2023/09/11 03:32:47;;;;;;;30.42;11.40;;;;;;;;;;4981425;28;20065;-74
2023/09/11 03:35:12;;;;;;;25.73;12.50;;;;;;;;;;4984500;28;20058;-74
2023/09/11 03:37:38;;;;;;;28.80;13.05;;;;;;;;;;4979693;28;20041;-74
2023/09/11 03:40:10;;;;;;;32.92;13.75;;;;;;;;;;4979338;28;20042;-74
2023/09/11 03:42:36;;;;;;;32.03;14.60;;;;;;;;;;4982321;28;20530;-75
2023/09/11 03:45:02;;;;;;;31.48;11.55;;;;;;;;;;4983102;28;20035;-74
2023/09/11 03:47:28;;;;;;;25.75;11.57;;;;;;;;;;4985365;28;20062;-74
2023/09/11 03:49:54;;;;;;;22.30;12.48;;;;;;;;;;4983080;28;20073;-74
2023/09/11 03:52:20;;;;;;;28.67;12.45;;;;;;;;;;4986097;28;20117;-74
2023/09/11 03:54:46;;;;;;;24.50;12.73;;;;;;;;;;4986165;28;20033;-74
2023/09/11 03:57:12;;;;;;;31.00;12.93;;;;;;;;;;4983398;28;20030;-74
2023/09/11 03:59:38;;;;;;;24.05;12.55;;;;;;;;;;4984746;28;20109;-74
2023/09/11 04:02:04;;;;;;;25.52;11.50;;;;;;;;;;4977619;28;20042;-75
2023/09/11 04:04:30;;;;;;;28.63;12.38;;;;;;;;;;4983787;28;20093;-74
2023/09/11 04:06:56;;;;;;;28.85;11.63;;;;;;;;;;4981127;28;20492;-75
2023/09/11 04:09:22;;;;;;;19.67;12.50;;;;;;;;;;4981123;28;20046;-75
2023/09/11 04:11:49;;;;;;;24.50;12.75;;;;;;;;;;4981190;28;20062;-75
2023/09/11 04:14:15;;;;;;;26.40;13.07;;;;;;;;;;4979439;28;20042;-75
2023/09/11 04:16:41;;;;;;;21.30;11.27;;;;;;;;;;4969088;28;20142;-75
2023/09/11 04:19:07;;;;;;;27.13;12.75;;;;;;;;;;4990317;28;20104;-75
2023/09/11 04:21:33;;;;;;;33.42;12.48;;;;;;;;;;4985618;28;20030;-75
2023/09/11 04:23:59;;;;;;;31.75;11.82;;;;;;;;;;4981665;28;20058;-75
2023/09/11 04:26:25;;;;;;;33.08;12.18;;;;;;;;;;4992314;28;20022;-75
2023/09/11 04:28:51;;;;;;;26.33;12.63;;;;;;;;;;4987123;28;20042;-75
2023/09/11 04:31:17;;;;;;;27.08;13.32;;;;;;;;;;4984540;28;20137;-75
2023/09/11 04:33:43;;;;;;;23.63;13.13;;;;;;;;;;4984058;28;20121;-75
2023/09/11 04:36:11;;;;;;;23.30;12.13;;;;;;;;;;4985499;28;20168;-75
2023/09/11 04:38:37;;;;;;;31.45;12.40;;;;;;;;;;4983019;28;20114;-74
2023/09/11 04:41:03;;;;;;;30.25;13.48;;;;;;;;;;4997011;28;20058;-75
2023/09/11 04:43:29;;;;;;;27.98;12.20;;;;;;;;;;4989733;28;20061;-75
2023/09/11 04:45:55;;;;;;;26.17;13.50;;;;;;;;;;4990732;28;20026;-73
2023/09/11 04:48:21;;;;;;;27.60;12.43;;;;;;;;;;4983882;28;20042;-75
2023/09/11 04:50:47;;;;;;;32.63;12.95;;;;;;;;;;4979530;28;20122;-75
2023/09/11 04:53:13;;;;;;;26.55;13.15;;;;;;;;;;4988948;28;20154;-75
2023/09/11 04:55:39;;;;;;;28.45;12.52;;;;;;;;;;4985764;28;20034;-75
2023/09/11 04:58:05;;;;;;;26.55;13.02;;;;;;;;;;4979823;28;20057;-75
2023/09/11 05:00:31;;;;;;;33.00;14.55;;;;;;;;;;4987901;28;20038;-75
2023/09/11 05:02:57;;;;;;;23.48;12.55;;;;;;;;;;4985831;28;20030;-75
2023/09/11 05:05:23;;;;;;;32.50;14.50;;;;;;;;;;5000989;28;20484;-75
2023/09/11 05:07:49;;;;;;;34.35;13.88;;;;;;;;;;4987178;28;20038;-75
2023/09/11 05:10:15;;;;;;;27.67;12.63;;;;;;;;;;4988441;28;20109;-75
2023/09/11 05:12:41;;;;;;;23.48;12.93;;;;;;;;;;4982097;28;20046;-75
2023/09/11 05:15:08;;;;;;;36.78;12.73;;;;;;;;;;4985557;28;20243;-75
2023/09/11 05:17:34;;;;;;;32.78;13.07;;;;;;;;;;4984384;28;20088;-76
2023/09/11 05:20:00;;;;;;;29.80;15.27;;;;;;;;;;4992208;28;20436;-75
2023/09/11 05:22:26;;;;;;;28.52;12.45;;;;;;;;;;4985886;28;20034;-75
2023/09/11 05:24:53;;;;;;;26.75;14.57;;;;;;;;;;4989455;28;20066;-76
2023/09/11 05:27:21;;;;;;;31.38;13.48;;;;;;;;;;4990441;28;20181;-75
2023/09/11 05:29:47;;;;;;;30.63;14.63;;;;;;;;;;4991048;28;20033;-75
2023/09/11 05:32:13;;;;;;;28.63;13.20;;;;;;;;;;4990099;28;20481;-75
2023/09/11 05:34:39;;;;;;;31.52;15.75;;;;;;;;;;4985491;28;20512;-75
2023/09/11 05:37:05;;;;;;;33.25;14.43;;;;;;;;;;4985057;28;20106;-76
2023/09/11 05:39:32;;;;;;;23.98;12.95;;;;;;;;;;4984739;28;20109;-77
2023/09/11 05:41:58;;;;;;;30.30;13.43;;;;;;;;;;4981938;28;20507;-76
2023/09/11 05:44:24;;;;;;;30.92;13.32;;;;;;;;;;4979066;28;20173;-78
2023/09/11 05:46:50;;;;;;;26.73;13.43;;;;;;;;;;4984733;28;20540;-80
2023/09/11 05:49:16;;;;;;;29.88;14.30;;;;;;;;;;4982549;28;20038;-78
2023/09/11 05:51:43;;;;;;;31.15;13.15;;;;;;;;;;4985290;28;20034;-77
2023/09/11 05:54:11;;;;;;;25.35;14.15;;;;;;;;;;4981884;28;20089;-80
2023/09/11 05:56:37;;;;;;;36.90;15.45;;;;;;;;;;4986437;28;20035;-78
2023/09/11 05:59:03;;;;;;;26.08;13.20;;;;;;;;;;4992397;28;20038;-80
2023/09/11 06:01:29;;;;;;;27.75;13.23;;;;;;;;;;5005215;28;20125;-84
2023/09/11 06:03:55;;;;;;;22.85;13.10;;;;;;;;;;4979717;28;20106;-82
2023/09/11 06:06:21;;;;;;;32.75;12.70;;;;;;;;;;4985434;28;20110;-81
2023/09/11 06:08:47;;;;;;;25.88;13.98;;;;;;;;;;4982972;28;20101;-80
2023/09/11 06:11:13;;;;;;;27.30;13.77;;;;;;;;;;4982527;28;20583;-80
2023/09/11 06:13:41;;;;;;;25.70;12.07;;;;;;;;;;4985107;28;20497;-77
2023/09/11 06:16:07;;;;;;;29.67;14.45;;;;;;;;;;4983598;28;20023;-80
2023/09/11 06:18:33;;;;;;;36.88;13.80;;;;;;;;;;4981100;28;21744;-80
2023/09/11 06:21:00;;;;;;;24.85;13.90;;;;;;;;;;4981436;28;20031;-81
2023/09/11 06:23:26;;;;;;;21.02;12.70;;;;;;;;;;4977888;28;20034;-81
2023/09/11 06:25:52;;;;;;;29.30;17.48;;;;;;;;;;4977407;28;20047;-82
2023/09/11 06:28:18;;;;;;;30.15;13.82;;;;;;;;;;4983461;28;20034;-79
2023/09/11 06:30:44;;;;;;;26.23;13.80;;;;;;;;;;4987743;28;20376;-80
2023/09/11 06:33:10;;;;;;;19.08;11.85;;;;;;;;;;4987892;28;20050;-81
2023/09/11 06:35:36;;;;;;;24.48;13.88;;;;;;;;;;4982232;28;20134;-80
2023/09/11 06:38:02;;;;;;;23.05;13.10;;;;;;;;;;4984176;28;20887;-77
2023/09/11 06:40:28;;;;;;;29.33;12.88;;;;;;;;;;4984158;28;20376;-77
2023/09/11 06:42:54;;;;;;;29.15;12.55;;;;;;;;;;4980613;28;20039;-77
2023/09/11 06:45:20;;;;;;;27.92;12.60;;;;;;;;;;4984603;28;20117;-77
2023/09/11 06:47:46;;;;;;;49.33;29.27;;;;;;;;;;4985801;28;20046;-79
2023/09/11 06:50:12;;;;;;;26.98;15.27;;;;;;;;;;4982836;28;20582;-78
2023/09/11 06:52:40;;;;;;;28.42;13.82;;;;;;;;;;4984083;28;20061;-78
2023/09/11 06:55:07;;;;;;;25.88;12.32;;;;;;;;;;4981806;28;20120;-79
2023/09/11 06:57:34;;;;;;;30.02;12.00;;;;;;;;;;4989738;28;20034;-80
2023/09/11 07:00:00;;;;;;;23.65;12.68;;;;;;;;;;4982088;28;20043;-80
2023/09/11 07:02:26;;;;;;;25.35;12.27;;;;;;;;;;4985304;28;20057;-82
2023/09/11 07:04:52;;;;;;;29.55;12.25;;;;;;;;;;4981146;28;20158;-82
2023/09/11 07:07:18;;;;;;;25.88;12.70;;;;;;;;;;4983389;28;20054;-84
2023/09/11 07:09:44;;;;;;;23.67;12.65;;;;;;;;;;4982989;28;20069;-83
2023/09/11 07:12:10;;;;;;;33.17;19.25;;;;;;;;;;4990470;28;20022;-82
2023/09/11 07:14:36;;;;;;;23.15;12.68;;;;;;;;;;4990410;28;20038;-81
2023/09/11 07:17:04;;;;;;;33.13;18.50;;;;;;;;;;4984631;28;20584;-78
2023/09/11 07:19:30;;;;;;;22.30;12.18;;;;;;;;;;4987787;28;20122;-84
2023/09/11 07:21:56;;;;;;;25.45;12.50;;;;;;;;;;4981912;28;20027;-86
2023/09/11 07:24:22;;;;;;;21.58;11.88;;;;;;;;;;4984707;28;20113;-85
2023/09/11 07:26:48;;;;;;;24.38;11.52;;;;;;;;;;4980984;28;20057;-81
2023/09/11 07:29:14;;;;;;;19.73;10.90;;;;;;;;;;4980394;28;20043;-77
2023/09/11 07:31:40;;;;;;;18.42;11.20;;;;;;;;;;4987284;28;20073;-81
2023/09/11 07:34:07;;;;;;;20.33;9.98;;;;;;;;;;4986139;28;20050;-82
2023/09/11 07:36:33;;;;;;;20.20;11.57;;;;;;;;;;4983837;28;20057;-80
2023/09/11 07:38:59;;;;;;;24.63;10.85;;;;;;;;;;4989486;28;22089;-84
2023/09/11 07:41:25;;;;;;;17.50;10.82;;;;;;;;;;4992371;28;20041;-88
2023/09/11 07:43:51;;;;;;;21.30;10.82;;;;;;;;;;4985795;28;20034;-90
2023/09/11 07:46:20;;;;;;;24.05;11.35;;;;;;;;;;4995336;28;20508;-87
2023/09/11 07:48:46;;;;;;;23.98;11.43;;;;;;;;;;4985847;28;20038;-87
2023/09/11 07:51:12;;;;;;;18.08;10.90;;;;;;;;;;4986113;28;20045;-79
2023/09/11 07:53:42;;;;;;;28.33;12.13;;;;;;;;;;4984311;28;20061;-82
2023/09/11 07:56:13;;;;;;;21.33;11.70;;;;;;;;;;4988521;28;20030;-81
2023/09/11 07:58:39;;;;;;;27.65;11.30;;;;;;;;;;4995813;28;20099;-78
2023/09/11 08:01:05;;;;;;;66.50;49.60;;;;;;;;;;4991598;28;20069;-76
2023/09/11 08:03:32;;;;;;;20.70;12.25;;;;;;;;;;4987995;28;20039;-77
2023/09/11 08:06:03;;;;;;;23.00;11.55;;;;;;;;;;4987099;28;20117;-78
2023/09/11 08:08:29;;;;;;;25.20;12.38;;;;;;;;;;4987608;28;20792;-74
2023/09/11 08:10:55;;;;;;;26.88;10.55;;;;;;;;;;4986128;28;20038;-74
2023/09/11 08:13:21;;;;;;;16.88;9.73;;;;;;;;;;4989775;28;20092;-75
2023/09/11 08:15:47;;;;;;;22.77;9.88;;;;;;;;;;4979155;28;20042;-75
2023/09/11 08:18:13;;;;;;;17.23;10.60;;;;;;;;;;4988235;28;20044;-75
2023/09/11 08:20:45;;;;;;;24.85;11.43;;;;;;;;;;4988816;28;20392;-75
2023/09/11 08:23:11;;;;;;;;;;;;;;;;;;4986493;28;20037;-75
2023/09/11 08:25:37;;;;;;;30.67;12.10;;;;;;;;;;4983699;28;19909;-75
2023/09/11 08:28:03;;;;;;;24.65;10.63;;;;;;;;;;4973455;28;20037;-75
2023/09/11 08:30:29;;;;;;;25.70;10.77;;;;;;;;;;4985175;28;20112;-75
2023/09/11 08:32:55;;;;;;;26.15;11.68;;;;;;;;;;4988493;28;20120;-75
2023/09/11 08:35:21;;;;;;;25.50;12.43;;;;;;;;;;4987013;28;20596;-75
2023/09/11 08:37:47;;;;;;;19.75;11.45;;;;;;;;;;4976790;28;20121;-75
2023/09/11 08:40:13;;;;;;;26.60;12.63;;;;;;;;;;4987216;28;20027;-75
2023/09/11 08:42:39;;;;;;;27.88;13.75;;;;;;;;;;4984328;28;20035;-74
2023/09/11 08:45:06;;;;;;;27.02;13.52;;;;;;;;;;4987278;28;20033;-75
2023/09/11 08:47:33;;;;;;;24.23;14.40;;;;;;;;;;4979152;28;20168;-75
2023/09/11 08:50:02;;;;;;;26.35;14.38;;;;;;;;;;4987080;28;20285;-75
2023/09/11 08:52:30;;;;;;;28.27;14.15;;;;;;;;;;4982165;28;20401;-75
2023/09/11 08:54:59;;;;;;;23.98;13.98;;;;;;;;;;4978932;28;20090;-75
2023/09/11 08:57:25;;;;;;;26.85;15.18;;;;;;;;;;4987229;28;20034;-75
2023/09/11 08:59:53;;;;;;;32.65;14.30;;;;;;;;;;4988370;28;20034;-75
2023/09/11 09:02:21;;;;;;;24.20;12.57;;;;;;;;;;4982664;28;20061;-75
2023/09/11 09:04:48;;;;;;;24.92;12.52;;;;;;;;;;4983185;28;20145;-75
2023/09/11 09:07:15;;;;;;;24.80;12.07;;;;;;;;;;4988262;28;20048;-76
2023/09/11 09:09:42;;;;;;;19.75;12.85;;;;;;;;;;4983993;28;20045;-75
2023/09/11 09:12:08;;;;;;;19.92;11.25;;;;;;;;;;4987023;28;20022;-76
2023/09/11 09:14:37;;;;;;;16.88;10.30;;;;;;;;;;4980096;28;20038;-75
2023/09/11 09:17:04;;;;;;;19.42;9.07;;;;;;;;;;4980450;28;20512;-76
2023/09/11 09:19:31;;;;;;;39.75;10.23;;;;;;;;;;4987080;28;20037;-76
2023/09/11 09:22:05;;;;;;;22.40;9.73;;;;;;;;;;4985924;28;20034;-76
2023/09/11 09:24:35;;;;;;;19.55;10.15;;;;;;;;;;4988238;28;20055;-75
2023/09/11 09:27:03;;;;;;;17.15;10.20;;;;;;;;;;4984858;28;20484;-76
2023/09/11 09:29:35;;;;;;;15.40;8.65;;;;;;;;;;5001505;28;20073;-75
2023/09/11 09:32:02;;;;;;;21.83;10.55;;;;;;;;;;4996406;28;20101;-76
2023/09/11 09:34:28;;;;;;;14.43;10.13;;;;;;;;;;4981978;28;20035;-76
2023/09/11 09:36:55;;;;;;;18.23;10.43;;;;;;;;;;4981988;28;20105;-76
2023/09/11 09:39:21;;;;;;;18.38;9.30;;;;;;;;;;4986616;28;20034;-76
2023/09/11 09:41:56;;;;;;;18.70;11.35;;;;;;;;;;4987544;28;20030;-76
2023/09/11 09:44:28;;;;;;;24.95;10.98;;;;;;;;;;4983789;28;20222;-76
2023/09/11 09:46:54;;;;;;;23.15;11.50;;;;;;;;;;4987775;28;20026;-76
2023/09/11 09:49:24;;;;;;;29.80;11.48;;;;;;;;;;4984382;28;20395;-75
2023/09/11 09:51:52;;;;;;;19.40;12.48;;;;;;;;;;4979763;28;20073;-76
2023/09/11 09:54:18;;;;;;;22.75;13.15;;;;;;;;;;4983000;28;20149;-76
2023/09/11 09:56:44;;;;;;;19.83;12.60;;;;;;;;;;4991304;28;20031;-76
2023/09/11 09:59:10;;;;;;;24.13;13.02;;;;;;;;;;4987294;28;20157;-76
2023/09/11 10:01:45;;;;;;;20.70;13.07;;;;;;;;;;4980924;28;20404;-76
2023/09/11 10:04:20;;;;;;;19.60;15.00;;;;;;;;;;4975942;28;20042;-82
2023/09/11 10:06:53;;;;;;;20.38;12.57;;;;;;;;;;4986397;28;20378;-82
2023/09/11 10:09:20;;;;;;;22.13;13.82;;;;;;;;;;4993404;28;20031;-81
2023/09/11 10:11:46;;;;;;;20.10;13.52;;;;;;;;;;4993017;28;20379;-82
2023/09/11 10:14:12;;;;;;;20.77;12.70;;;;;;;;;;4983222;28;20038;-84
2023/09/11 10:16:40;;;;;;;25.30;13.18;;;;;;;;;;4998651;28;20034;-81
2023/09/11 10:19:06;;;;;;;22.50;12.70;;;;;;;;;;5007039;28;20297;-84
2023/09/11 10:21:34;;;;;;;19.10;12.38;;;;;;;;;;4981274;28;20081;-81
2023/09/11 10:24:00;;;;;;;18.95;12.10;;;;;;;;;;4979423;28;20078;-81
2023/09/11 10:26:27;;;;;;;15.52;11.18;;;;;;;;;;4983070;28;20070;-85
2023/09/11 10:28:56;;;;;;;20.30;10.88;;;;;;;;;;4986170;28;20097;-85
2023/09/11 10:31:24;;;;;;;17.30;10.98;;;;;;;;;;4984341;28;20023;-86
2023/09/11 10:33:58;;;;;;;16.10;9.52;;;;;;;;;;4982762;28;20471;-84
2023/09/11 10:36:26;;;;;;;18.55;8.75;;;;;;;;;;4984854;28;20037;-83
2023/09/11 10:38:55;;;;;;;24.02;9.60;;;;;;;;;;4986059;28;20448;-83
2023/09/11 10:41:21;;;;;;;19.02;11.35;;;;;;;;;;4996256;28;20030;-84
2023/09/11 10:43:47;;;;;;;12.27;8.50;;;;;;;;;;4984642;28;20437;-85
2023/09/11 10:46:22;;;;;;;13.13;7.90;;;;;;;;;;4985022;28;20032;-84
2023/09/11 10:48:49;;;;;;;19.20;8.90;;;;;;;;;;4980086;28;20517;-86
2023/09/11 10:51:16;;;;;;;10.77;7.97;;;;;;;;;;4985025;28;20093;-88
2023/09/11 10:53:42;;;;;;;14.30;7.82;;;;;;;;;;4984557;28;20468;-88
2023/09/11 10:56:08;;;;;;;12.25;8.05;;;;;;;;;;4978185;28;20041;-89
2023/09/11 10:58:35;;;;;;;16.27;10.02;;;;;;;;;;4982309;28;20481;-82
2023/09/11 11:01:03;;;;;;;12.55;7.38;;;;;;;;;;4981387;28;20026;-83
2023/09/11 11:03:30;;;;;;;15.57;7.95;;;;;;;;;;4978929;28;20049;-82
2023/09/11 11:05:58;;;;;;;15.00;7.15;;;;;;;;;;4985310;28;20042;-77
2023/09/11 11:08:25;;;;;;;16.65;8.63;;;;;;;;;;4976155;28;20040;-77
2023/09/11 11:10:51;;;;;;;16.50;8.43;;;;;;;;;;4982559;28;20038;-78
2023/09/11 11:13:17;;;;;;;15.15;7.88;;;;;;;;;;4981643;28;20088;-77
2023/09/11 11:15:43;;;;;;;14.77;7.05;;;;;;;;;;4987173;28;20022;-78
2023/09/11 11:18:11;;;;;;;16.30;7.70;;;;;;;;;;4983785;28;20084;-77
2023/09/11 11:20:38;;;;;;;17.73;7.32;;;;;;;;;;4984510;28;20057;-76
2023/09/11 11:23:08;;;;;;;19.75;6.90;;;;;;;;;;4987739;28;20098;-77
2023/09/11 11:25:34;;;;;;;18.13;6.88;;;;;;;;;;4986012;28;20089;-76
2023/09/11 11:28:07;;;;;;;16.40;6.38;;;;;;;;;;4987390;28;20038;-77
2023/09/11 11:30:35;;;;;;;9.68;5.40;;;;;;;;;;4988076;28;20034;-77
2023/09/11 11:33:04;;;;;;;14.13;5.18;;;;;;;;;;4981530;28;20042;-77
2023/09/11 11:35:31;;;;;;;9.85;4.45;;;;;;;;;;4985670;28;20031;-76
2023/09/11 11:37:57;;;;;;;10.98;4.60;;;;;;;;;;4987269;28;20583;-77
2023/09/11 11:40:23;;;;;;;10.40;3.05;;;;;;;;;;4984428;28;20566;-77
2023/09/11 11:42:50;;;;;;;9.27;3.08;;;;;;;;;;4987561;28;20050;-77
2023/09/11 11:45:16;;;;;;;7.50;2.85;;;;;;;;;;4984395;28;20030;-77
2023/09/11 11:47:42;;;;;;;9.43;2.42;;;;;;;;;;4986357;28;20035;-76
2023/09/11 11:50:11;;;;;;;4.85;2.63;;;;;;;;;;4987944;28;20088;-77
2023/09/11 11:52:37;;;;;;;7.35;2.58;;;;;;;;;;4981107;28;20600;-76
2023/09/11 11:55:18;;;;;;;8.52;3.20;;;;;;;;;;4988432;28;20129;-77
2023/09/11 11:57:43;;;;;;;7.25;2.92;;;;;;;;;;4982391;28;20062;-78
2023/09/11 12:00:11;;;;;;;11.75;3.05;;;;;;;;;;4987497;28;20096;-77
2023/09/11 12:02:37;;;;;;;15.35;3.22;;;;;;;;;;4977287;28;20070;-77
2023/09/11 12:05:11;;;;;;;7.60;2.72;;;;;;;;;;4987362;28;20061;-77
2023/09/11 12:07:37;;;;;;;7.80;2.88;;;;;;;;;;4981205;28;20057;-77
2023/09/11 12:10:03;;;;;;;5.70;2.75;;;;;;;;;;4984442;28;20504;-77
2023/09/11 12:12:29;;;;;;;9.98;3.90;;;;;;;;;;4991210;28;20034;-77
2023/09/11 12:14:56;;;;;;;5.28;3.17;;;;;;;;;;4990839;28;20042;-76
2023/09/11 12:17:22;;;;;;;6.97;2.75;;;;;;;;;;4986021;28;20035;-77
2023/09/11 12:19:48;;;;;;;8.85;3.40;;;;;;;;;;4985527;28;20106;-77
2023/09/11 12:22:14;;;;;;;5.40;2.70;;;;;;;;;;4987466;28;20423;-78
2023/09/11 12:24:40;;;;;;;14.43;3.03;;;;;;;;;;4983069;28;20165;-78
2023/09/11 12:27:07;;;;;;;7.35;3.20;;;;;;;;;;4986482;28;20126;-77
2023/09/11 12:29:33;;;;;;;10.07;3.60;;;;;;;;;;4986853;28;20232;-76
2023/09/11 12:31:59;;;;;;;10.27;3.75;;;;;;;;;;4978785;28;21314;-76
2023/09/11 12:34:27;;;;;;;6.90;3.40;;;;;;;;;;4981031;28;20195;-74
2023/09/11 12:36:53;;;;;;;7.18;4.03;;;;;;;;;;4987261;28;20031;-76
2023/09/11 12:39:19;;;;;;;10.20;4.05;;;;;;;;;;4978806;28;20046;-77
2023/09/11 12:41:46;;;;;;;11.05;3.83;;;;;;;;;;4986187;28;20080;-77
2023/09/11 12:44:13;;;;;;;8.85;3.42;;;;;;;;;;4985694;28;20053;-77
2023/09/11 12:46:39;;;;;;;10.23;3.53;;;;;;;;;;4988541;28;20027;-76
2023/09/11 12:49:05;;;;;;;9.93;3.28;;;;;;;;;;4981794;28;20059;-77
2023/09/11 12:51:33;;;;;;;8.20;3.83;;;;;;;;;;4983352;28;20045;-77
2023/09/11 12:53:59;;;;;;;11.43;4.18;;;;;;;;;;4984272;28;20381;-77
2023/09/11 12:56:27;;;;;;;4.40;3.40;;;;;;;;;;4985704;28;20177;-76
2023/09/11 12:58:53;;;;;;;7.97;3.72;;;;;;;;;;4986467;28;20026;-76
2023/09/11 13:01:20;;;;;;;10.25;3.40;;;;;;;;;;4983257;28;20034;-77
2023/09/11 13:03:47;;;;;;;8.35;4.13;;;;;;;;;;4982723;28;20042;-81
2023/09/11 13:06:13;;;;;;;11.32;4.70;;;;;;;;;;4984400;28;20109;-79
2023/09/11 13:08:39;;;;;;;8.98;4.20;;;;;;;;;;4978108;28;20035;-79
2023/09/11 13:11:05;;;;;;;9.55;3.92;;;;;;;;;;4986004;28;20026;-76
2023/09/11 13:13:31;;;;;;;7.65;4.22;;;;;;;;;;4979645;28;20059;-74
2023/09/11 13:15:57;;;;;;;9.25;4.65;;;;;;;;;;4978395;28;20041;-75
2023/09/11 13:18:23;;;;;;;6.80;4.72;;;;;;;;;;4984483;28;20046;-76
2023/09/11 13:20:49;;;;;;;10.75;6.75;;;;;;;;;;4978225;28;20043;-76
2023/09/11 13:23:15;;;;;;;15.88;6.85;;;;;;;;;;4980201;28;20054;-76
2023/09/11 13:25:41;;;;;;;18.90;7.30;;;;;;;;;;4983397;28;20502;-76
2023/09/11 13:28:07;;;;;;;11.80;7.05;;;;;;;;;;4980198;28;20071;-76
2023/09/11 13:30:34;;;;;;;20.38;7.90;;;;;;;;;;4981924;28;20396;-77
2023/09/11 13:33:00;;;;;;;11.32;7.70;;;;;;;;;;4983154;28;20622;-75
2023/09/11 13:35:26;;;;;;;19.08;8.48;;;;;;;;;;4986641;28;20034;-75
2023/09/11 13:37:52;;;;;;;13.00;8.77;;;;;;;;;;4980785;28;20034;-75
2023/09/11 13:40:18;;;;;;;14.20;7.63;;;;;;;;;;4995675;28;20042;-75
2023/09/11 13:42:44;;;;;;;14.70;9.88;;;;;;;;;;4978211;28;20069;-77
2023/09/11 13:45:15;;;;;;;15.70;8.15;;;;;;;;;;4979270;28;20392;-78
2023/09/11 13:47:41;;;;;;;16.02;8.50;;;;;;;;;;4990273;28;20101;-76
2023/09/11 13:50:09;;;;;;;11.90;6.78;;;;;;;;;;4977994;28;20632;-76
2023/09/11 13:52:35;;;;;;;9.95;7.18;;;;;;;;;;4986124;28;20141;-76
2023/09/11 13:55:01;;;;;;;10.35;6.03;;;;;;;;;;4986438;28;20042;-77
2023/09/11 13:57:27;;;;;;;11.25;5.43;;;;;;;;;;4976611;28;20039;-80
2023/09/11 13:59:53;;;;;;;14.27;5.85;;;;;;;;;;4979500;28;20539;-80
2023/09/11 14:02:19;;;;;;;15.90;7.03;;;;;;;;;;4984317;28;20125;-81
2023/09/11 14:04:45;;;;;;;14.40;6.63;;;;;;;;;;4984674;28;20066;-78
2023/09/11 14:07:11;;;;;;;21.58;9.52;;;;;;;;;;4979950;28;20204;-77
2023/09/11 14:09:37;;;;;;;14.73;7.40;;;;;;;;;;5000948;28;20129;-78
2023/09/11 14:12:03;;;;;;;15.40;6.80;;;;;;;;;;4979265;28;20504;-76
2023/09/11 14:14:29;;;;;;;15.48;7.13;;;;;;;;;;4988659;28;20432;-75
2023/09/11 14:16:55;;;;;;;11.88;6.90;;;;;;;;;;4984294;28;20198;-75
2023/09/11 14:19:21;;;;;;;13.25;6.50;;;;;;;;;;4981354;28;20040;-75
2023/09/11 14:21:47;;;;;;;14.95;7.50;;;;;;;;;;4974638;28;20070;-75